Time;durP1;ratioP1;P1;durP2;ratioP2;P2;SDS_P1;SDS_P2;PMS_P1;PMS_P2;Temp;Humidity;BMP_temperature;BMP_pressure;BME280_temperature;BME280_humidity;BME280_pressure;Samples;Min_cycle;Max_cycle;Signal;HPM_P1;HPM_P2
2021/07/02 00:02:07;;;;;;;23.43;13.50;;;16.80;93.60;;;;;;5093624;28;20443;-67
2021/07/02 00:04:34;;;;;;;26.13;14.00;;;16.80;93.60;;;;;;5093306;28;20922;-67
2021/07/02 00:07:01;;;;;;;22.80;12.60;;;16.80;93.50;;;;;;5093219;28;20519;-67
2021/07/02 00:09:29;;;;;;;25.80;14.13;;;16.80;93.50;;;;;;5093772;28;20444;-67
2021/07/02 00:11:56;;;;;;;32.93;14.40;;;16.80;93.50;;;;;;5093174;28;20938;-67
2021/07/02 00:14:22;;;;;;;28.63;12.63;;;16.80;93.50;;;;;;5093377;28;20448;-67
2021/07/02 00:16:50;;;;;;;22.50;12.47;;;16.80;93.50;;;;;;5093446;28;20496;-68
2021/07/02 00:19:17;;;;;;;22.00;12.87;;;16.80;93.60;;;;;;5093780;28;20542;-67
2021/07/02 00:21:43;;;;;;;23.70;13.83;;;16.80;93.50;;;;;;5093181;28;21011;-67
2021/07/02 00:24:10;;;;;;;17.03;13.37;;;16.80;93.50;;;;;;5093373;28;20480;-67
2021/07/02 00:26:39;;;;;;;17.60;12.00;;;16.80;93.60;;;;;;5093327;28;20467;-67
2021/07/02 00:29:06;;;;;;;24.73;14.10;;;16.80;93.50;;;;;;5093040;28;20960;-67
2021/07/02 00:31:33;;;;;;;24.50;12.20;;;16.70;93.40;;;;;;5093308;28;20447;-67
2021/07/02 00:34:00;;;;;;;22.57;14.40;;;16.70;93.30;;;;;;5093527;28;20470;-67
2021/07/02 00:36:26;;;;;;;20.23;14.33;;;16.70;93.30;;;;;;5093164;28;20814;-67
2021/07/02 00:38:54;;;;;;;22.50;12.53;;;16.70;93.20;;;;;;5092943;28;20934;-66
2021/07/02 00:41:21;;;;;;;27.37;13.97;;;16.70;93.30;;;;;;5093244;28;20447;-67
2021/07/02 00:43:50;;;;;;;25.03;12.90;;;16.70;93.30;;;;;;5093248;28;20440;-67
2021/07/02 00:46:17;;;;;;;24.30;13.27;;;16.70;93.30;;;;;;5093299;28;20505;-67
2021/07/02 00:48:44;;;;;;;25.80;13.87;;;16.70;93.20;;;;;;5092890;28;20934;-67
2021/07/02 00:51:11;;;;;;;21.13;13.20;;;16.70;93.50;;;;;;5092807;28;20822;-67
2021/07/02 00:53:37;;;;;;;22.10;12.40;;;16.70;93.20;;;;;;5093159;28;20448;-67
2021/07/02 00:56:05;;;;;;;31.10;14.20;;;16.70;93.10;;;;;;5092706;28;20996;-68
2021/07/02 00:58:32;;;;;;;18.47;13.47;;;16.70;92.90;;;;;;5096617;28;20930;-67
2021/07/02 01:01:01;;;;;;;28.10;12.83;;;16.70;92.80;;;;;;5096535;28;20447;-67
2021/07/02 01:03:28;;;;;;;24.70;14.30;;;16.70;92.90;;;;;;5096622;28;20570;-67
2021/07/02 01:05:56;;;;;;;18.07;12.97;;;16.70;92.90;;;;;;5096446;28;20952;-66
2021/07/02 01:08:22;;;;;;;35.90;14.20;;;16.70;92.90;;;;;;5096286;28;20480;-67
2021/07/02 01:10:49;;;;;;;24.47;13.50;;;16.70;93.00;;;;;;5096676;28;20453;-67
2021/07/02 01:13:16;;;;;;;19.00;12.50;;;16.70;92.80;;;;;;5096307;28;20442;-67
2021/07/02 01:15:43;;;;;;;20.17;12.10;;;16.70;92.70;;;;;;5096531;28;20548;-67
2021/07/02 01:18:12;;;;;;;21.07;12.97;;;16.70;92.60;;;;;;5096492;28;20470;-67
2021/07/02 01:20:38;;;;;;;23.73;12.67;;;16.70;92.60;;;;;;5096490;28;20443;-66
2021/07/02 01:23:06;;;;;;;20.00;13.83;;;16.70;92.70;;;;;;5096142;28;20929;-67
2021/07/02 01:25:36;;;;;;;23.63;14.07;;;16.70;92.60;;;;;;5096378;28;20809;-67
2021/07/02 01:28:04;;;;;;;18.70;12.63;;;16.70;92.40;;;;;;5095963;28;21000;-67
2021/07/02 01:30:31;;;;;;;25.53;13.20;;;16.70;92.50;;;;;;5096350;28;20447;-67
2021/07/02 01:32:57;;;;;;;24.93;15.27;;;16.70;92.30;;;;;;5096441;28;20455;-67
2021/07/02 01:35:24;;;;;;;23.53;12.87;;;16.70;92.30;;;;;;5096139;28;20490;-67
2021/07/02 01:37:51;;;;;;;22.40;13.07;;;16.70;92.40;;;;;;5096096;28;20468;-67
2021/07/02 01:40:19;;;;;;;16.63;11.77;;;16.70;92.30;;;;;;5096084;28;20444;-67
2021/07/02 01:42:46;;;;;;;19.87;12.63;;;16.70;92.10;;;;;;5096069;28;20447;-67
2021/07/02 01:45:13;;;;;;;20.77;11.10;;;16.70;92.00;;;;;;5096027;28;20464;-67
2021/07/02 01:47:41;;;;;;;18.27;11.07;;;16.70;92.00;;;;;;5095844;28;20467;-67
2021/07/02 01:50:09;;;;;;;18.97;13.70;;;16.70;92.10;;;;;;5096705;28;20823;-67
2021/07/02 01:52:36;;;;;;;22.13;12.40;;;16.70;92.10;;;;;;5095556;28;20447;-67
2021/07/02 01:55:04;;;;;;;24.10;13.07;;;16.70;92.00;;;;;;5096015;28;20444;-67
2021/07/02 01:57:32;;;;;;;20.27;11.87;;;16.70;92.10;;;;;;5095690;28;20472;-67
2021/07/02 01:59:58;;;;;;;20.97;13.50;;;16.70;92.20;;;;;;5095736;28;20444;-67
2021/07/02 02:02:25;;;;;;;25.43;13.80;;;16.60;92.30;;;;;;5095330;28;20791;-67
2021/07/02 02:04:52;;;;;;;20.63;13.90;;;16.60;92.30;;;;;;5095579;28;20938;-67
2021/07/02 02:07:19;;;;;;;19.90;12.77;;;16.60;92.50;;;;;;5095194;28;20479;-67
2021/07/02 02:09:46;;;;;;;19.60;12.20;;;16.50;92.50;;;;;;5094654;28;20444;-67
2021/07/02 02:12:12;;;;;;;27.20;14.10;;;16.50;92.60;;;;;;5095499;28;20446;-67
2021/07/02 02:14:41;;;;;;;18.60;12.40;;;16.50;92.60;;;;;;5095471;28;20447;-67
2021/07/02 02:17:07;;;;;;;14.87;11.73;;;16.50;92.50;;;;;;5095497;28;20487;-67
2021/07/02 02:19:35;;;;;;;22.23;12.17;;;16.50;92.50;;;;;;5095041;28;20990;-67
2021/07/02 02:22:02;;;;;;;21.90;11.50;;;16.50;92.40;;;;;;5095294;28;20448;-67
2021/07/02 02:24:29;;;;;;;15.40;12.33;;;16.50;92.30;;;;;;5095301;28;20439;-67
2021/07/02 02:26:56;;;;;;;16.50;11.00;;;16.50;92.10;;;;;;5095079;28;20981;-67
2021/07/02 02:29:23;;;;;;;15.20;10.63;;;16.50;92.00;;;;;;5094841;28;20436;-67
2021/07/02 02:31:51;;;;;;;17.33;10.30;;;16.50;91.80;;;;;;5095107;28;20471;-67
2021/07/02 02:34:19;;;;;;;13.57;10.77;;;16.50;91.70;;;;;;5095050;28;20526;-67
2021/07/02 02:36:46;;;;;;;15.13;10.97;;;16.50;91.60;;;;;;5094876;28;20494;-67
2021/07/02 02:39:12;;;;;;;23.60;12.10;;;16.40;91.40;;;;;;5094923;28;20554;-67
2021/07/02 02:41:39;;;;;;;18.63;12.73;;;16.40;91.40;;;;;;5094937;28;20794;-67
2021/07/02 02:44:06;;;;;;;21.60;11.97;;;16.40;91.40;;;;;;5094536;28;20819;-67
2021/07/02 02:46:34;;;;;;;15.43;11.60;;;16.40;91.30;;;;;;5094738;28;20460;-67
2021/07/02 02:49:02;;;;;;;16.17;11.37;;;16.40;91.50;;;;;;5095004;28;20455;-67
2021/07/02 02:51:29;;;;;;;17.37;11.37;;;16.40;91.50;;;;;;5094700;28;20447;-67
2021/07/02 02:53:55;;;;;;;26.07;13.23;;;16.40;91.50;;;;;;5094674;28;20459;-67
2021/07/02 02:56:22;;;;;;;16.83;11.40;;;16.40;91.60;;;;;;5094495;28;20486;-67
2021/07/02 02:58:49;;;;;;;22.47;11.57;;;16.30;91.50;;;;;;5094251;28;20963;-67
2021/07/02 03:01:16;;;;;;;16.10;12.47;;;16.40;91.60;;;;;;5094615;28;20424;-67
2021/07/02 03:03:42;;;;;;;17.40;10.73;;;16.30;91.50;;;;;;5094247;28;20933;-67
2021/07/02 03:06:10;;;;;;;15.53;11.30;;;16.40;91.40;;;;;;5094229;28;20459;-67
2021/07/02 03:08:38;;;;;;;16.17;10.90;;;16.30;91.20;;;;;;5094463;28;20439;-67
2021/07/02 03:11:05;;;;;;;22.07;11.57;;;16.30;91.20;;;;;;5094384;28;20451;-67
2021/07/02 03:13:31;;;;;;;18.40;11.90;;;16.20;91.00;;;;;;5094050;28;20452;-67
2021/07/02 03:15:58;;;;;;;16.23;11.40;;;16.20;91.10;;;;;;5094239;28;20479;-67
2021/07/02 03:18:25;;;;;;;18.47;12.67;;;16.20;91.20;;;;;;5094160;28;20471;-67
2021/07/02 03:20:52;;;;;;;18.33;12.20;;;16.20;91.20;;;;;;5093967;28;20466;-67
2021/07/02 03:23:20;;;;;;;20.97;10.10;;;16.10;91.00;;;;;;5093858;28;20937;-67
2021/07/02 03:25:46;;;;;;;14.50;10.30;;;16.10;91.00;;;;;;5094150;28;20436;-67
2021/07/02 03:28:13;;;;;;;15.00;12.10;;;16.10;91.00;;;;;;5094039;28;20491;-67
2021/07/02 03:30:40;;;;;;;13.83;10.33;;;16.10;91.10;;;;;;5094025;28;20440;-67
2021/07/02 03:33:07;;;;;;;12.30;11.00;;;16.10;91.20;;;;;;5093705;28;20819;-67
2021/07/02 03:35:34;;;;;;;19.03;11.60;;;16.00;91.30;;;;;;5093854;28;20452;-67
2021/07/02 03:38:00;;;;;;;17.37;10.53;;;16.00;91.40;;;;;;5093560;28;20973;-67
2021/07/02 03:40:28;;;;;;;20.00;11.37;;;16.00;91.40;;;;;;5093892;28;20444;-67
2021/07/02 03:42:55;;;;;;;19.80;12.63;;;16.10;91.40;;;;;;5093842;28;20949;-67
2021/07/02 03:45:22;;;;;;;20.10;12.40;;;16.10;91.40;;;;;;5093820;28;20450;-67
2021/07/02 03:47:49;;;;;;;16.60;11.33;;;16.10;91.40;;;;;;5093721;28;20483;-67
2021/07/02 03:50:15;;;;;;;16.37;11.30;;;16.10;91.40;;;;;;5093456;28;20572;-67
2021/07/02 03:52:42;;;;;;;14.60;11.00;;;16.10;91.60;;;;;;5093698;28;20455;-67
2021/07/02 03:55:10;;;;;;;16.80;12.50;;;16.10;91.70;;;;;;5093669;28;20811;-67
2021/07/02 03:57:38;;;;;;;20.47;10.10;;;16.10;91.80;;;;;;5093236;28;20485;-67
2021/07/02 04:00:07;;;;;;;19.77;11.63;;;16.10;91.70;;;;;;5093664;28;20508;-67
2021/07/02 04:02:33;;;;;;;16.63;11.50;;;16.10;91.80;;;;;;5076051;28;20439;-67
2021/07/02 04:05:00;;;;;;;15.23;11.10;;;16.20;91.80;;;;;;5093554;28;20448;-67
2021/07/02 04:07:28;;;;;;;17.83;10.50;;;16.20;91.80;;;;;;5093214;28;20490;-66
2021/07/02 04:09:55;;;;;;;19.23;11.70;;;16.20;91.70;;;;;;5093529;28;20450;-66
2021/07/02 04:12:21;;;;;;;13.90;10.90;;;16.20;91.60;;;;;;5093514;28;20454;-66
2021/07/02 04:14:49;;;;;;;14.83;10.30;;;16.30;91.50;;;;;;5093562;28;20801;-67
2021/07/02 04:17:16;;;;;;;18.50;12.03;;;16.30;91.20;;;;;;5093238;28;20478;-67
2021/07/02 04:19:43;;;;;;;19.77;12.13;;;16.30;91.10;;;;;;5093448;28;20470;-67
2021/07/02 04:22:10;;;;;;;14.73;9.70;;;16.30;90.70;;;;;;5093468;28;20420;-67
2021/07/02 04:24:36;;;;;;;17.47;10.10;;;16.30;90.50;;;;;;5093376;28;20440;-67
2021/07/02 04:27:04;;;;;;;26.30;11.80;;;16.40;90.60;;;;;;5093010;28;20996;-67
2021/07/02 04:29:30;;;;;;;21.30;11.73;;;16.40;90.40;;;;;;5093014;28;20944;-67
2021/07/02 04:31:58;;;;;;;18.03;10.40;;;16.30;90.30;;;;;;5095981;28;20451;-67
2021/07/02 04:34:25;;;;;;;22.57;10.43;;;16.30;90.20;;;;;;5097427;28;20447;-67
2021/07/02 04:36:52;;;;;;;22.10;10.30;;;16.30;90.10;;;;;;5097237;28;20492;-67
2021/07/02 04:39:21;;;;;;;22.27;9.87;;;16.40;89.90;;;;;;5096975;28;20440;-67
2021/07/02 04:41:48;;;;;;;15.87;9.83;;;16.40;89.50;;;;;;5097491;28;20862;-67
2021/07/02 04:44:14;;;;;;;18.50;10.30;;;16.50;89.10;;;;;;5097246;28;20432;-67
2021/07/02 04:46:41;;;;;;;21.73;10.67;;;16.50;89.00;;;;;;5097090;28;20892;-67
2021/07/02 04:49:09;;;;;;;20.10;10.50;;;16.60;88.90;;;;;;5097110;28;20448;-67
2021/07/02 04:51:36;;;;;;;16.50;9.73;;;16.60;88.70;;;;;;5097066;28;20459;-67
2021/07/02 04:54:03;;;;;;;15.43;11.30;;;16.70;88.70;;;;;;5096722;28;20956;-67
2021/07/02 04:56:30;;;;;;;14.90;10.13;;;16.80;88.50;;;;;;5096944;28;20491;-67
2021/07/02 04:58:57;;;;;;;20.40;10.97;;;16.80;87.60;;;;;;5096979;28;20451;-67
2021/07/02 05:01:25;;;;;;;18.57;11.10;;;16.80;86.90;;;;;;5096928;28;20454;-67
2021/07/02 05:03:52;;;;;;;24.13;11.47;;;16.80;86.80;;;;;;5096741;28;20420;-67
2021/07/02 05:06:20;;;;;;;20.63;11.57;;;16.80;86.60;;;;;;5096601;28;20450;-67
2021/07/02 05:08:47;;;;;;;16.73;11.03;;;16.80;86.80;;;;;;5096974;28;20432;-67
2021/07/02 05:11:14;;;;;;;21.33;11.27;;;16.90;87.00;;;;;;5096371;28;20948;-67
2021/07/02 05:13:41;;;;;;;16.67;10.97;;;16.90;85.90;;;;;;5096669;28;20439;-67
2021/07/02 05:16:08;;;;;;;18.47;11.10;;;17.00;86.30;;;;;;5096338;28;20467;-67
2021/07/02 05:18:35;;;;;;;19.37;11.00;;;17.10;86.30;;;;;;5096590;28;20494;-67
2021/07/02 05:21:02;;;;;;;17.60;9.57;;;17.20;85.90;;;;;;5096227;28;20444;-67
2021/07/02 05:23:31;;;;;;;18.83;11.03;;;17.30;85.70;;;;;;5096529;28;20423;-67
2021/07/02 05:25:58;;;;;;;19.83;11.03;;;17.40;85.60;;;;;;5096434;28;20440;-67
2021/07/02 05:28:25;;;;;;;18.37;10.73;;;17.50;85.50;;;;;;5096069;28;20984;-67
2021/07/02 05:30:51;;;;;;;19.60;11.10;;;17.60;84.70;;;;;;5096327;28;20448;-67
2021/07/02 05:33:18;;;;;;;23.80;11.10;;;17.60;84.70;;;;;;5096289;28;20439;-67
2021/07/02 05:35:45;;;;;;;17.90;10.07;;;17.60;84.20;;;;;;5096218;28;20444;-67
2021/07/02 05:38:12;;;;;;;15.90;11.03;;;17.70;83.20;;;;;;5096031;28;20488;-67
2021/07/02 05:40:40;;;;;;;11.77;10.60;;;17.70;83.20;;;;;;5096128;28;20448;-67
2021/07/02 05:43:07;;;;;;;20.57;10.20;;;17.70;83.20;;;;;;5095973;28;20444;-67
2021/07/02 05:45:33;;;;;;;16.17;11.10;;;17.80;83.60;;;;;;5096045;28;20463;-67
2021/07/02 05:48:02;;;;;;;12.60;7.70;;;17.90;83.30;;;;;;5095951;28;20503;-67
2021/07/02 05:50:29;;;;;;;21.70;10.07;;;18.00;83.10;;;;;;5095997;28;20482;-67
2021/07/02 05:52:56;;;;;;;14.23;9.20;;;18.10;82.40;;;;;;5095899;28;20444;-67
2021/07/02 05:55:23;;;;;;;16.90;10.07;;;18.20;82.00;;;;;;5096391;28;20436;-67
2021/07/02 05:57:51;;;;;;;16.20;10.23;;;18.40;81.40;;;;;;5095597;28;20493;-67
2021/07/02 06:00:19;;;;;;;17.80;9.67;;;18.40;79.70;;;;;;5095344;28;20456;-67
2021/07/02 06:02:46;;;;;;;18.70;9.40;;;18.50;79.40;;;;;;5095709;28;20475;-67
2021/07/02 06:05:13;;;;;;;13.37;9.53;;;18.60;79.40;;;;;;5095601;28;20815;-67
2021/07/02 06:07:44;;;;;;;18.30;9.53;;;18.70;79.40;;;;;;5095194;28;20479;-67
2021/07/02 06:10:12;;;;;;;20.43;8.70;;;18.80;80.30;;;;;;5095285;28;20428;-67
2021/07/02 06:12:39;;;;;;;15.40;8.90;;;18.90;81.30;;;;;;5095570;28;20428;-67
2021/07/02 06:15:08;;;;;;;12.00;8.50;;;19.00;80.50;;;;;;5095185;28;20793;-67
2021/07/02 06:17:35;;;;;;;14.13;8.47;;;19.10;80.50;;;;;;5095299;28;20479;-67
2021/07/02 06:20:02;;;;;;;14.90;8.37;;;19.10;79.40;;;;;;5095409;28;20439;-67
2021/07/02 06:22:28;;;;;;;14.60;8.13;;;19.20;79.40;;;;;;5095389;28;20432;-67
2021/07/02 06:24:55;;;;;;;13.07;8.47;;;19.20;79.00;;;;;;5095017;28;20905;-67
2021/07/02 06:27:22;;;;;;;14.23;8.90;;;19.30;78.70;;;;;;5095204;28;20467;-67
2021/07/02 06:29:49;;;;;;;13.20;8.60;;;19.40;78.50;;;;;;5095187;28;20451;-67
2021/07/02 06:32:17;;;;;;;18.10;9.50;;;19.40;78.60;;;;;;5094813;28;20898;-67
2021/07/02 06:34:44;;;;;;;17.37;10.17;;;19.50;78.00;;;;;;5095065;28;20432;-67
2021/07/02 06:37:11;;;;;;;13.80;8.47;;;19.50;77.40;;;;;;5095190;28;20476;-67
2021/07/02 06:39:37;;;;;;;13.70;8.60;;;19.50;77.30;;;;;;5094996;28;20432;-67
2021/07/02 06:42:05;;;;;;;14.90;9.20;;;19.60;78.40;;;;;;5095474;28;20435;-67
2021/07/02 06:44:32;;;;;;;11.53;8.50;;;19.70;78.10;;;;;;5094667;28;20853;-67
2021/07/02 06:46:59;;;;;;;18.70;9.00;;;19.90;76.20;;;;;;5094871;28;20452;-67
2021/07/02 06:49:27;;;;;;;13.10;8.60;;;19.90;74.30;;;;;;5094888;28;20432;-67
2021/07/02 06:51:54;;;;;;;10.03;7.43;;;19.90;74.80;;;;;;5094790;28;20439;-67
2021/07/02 06:54:21;;;;;;;12.53;7.17;;;19.90;74.20;;;;;;5094449;28;20440;-67
2021/07/02 06:57:03;;;;;;;15.20;9.03;;;19.80;73.40;;;;;;5094549;28;20836;-67
2021/07/02 06:59:31;;;;;;;18.40;8.50;;;19.80;74.10;;;;;;5094727;28;20432;-67
2021/07/02 07:01:58;;;;;;;19.90;8.73;;;19.70;74.70;;;;;;5094585;28;20444;-67
2021/07/02 07:04:28;;;;;;;20.60;8.83;;;19.70;74.50;;;;;;5094383;28;20428;-67
2021/07/02 07:06:55;;;;;;;15.43;8.90;;;19.70;73.10;;;;;;5094340;28;20476;-67
2021/07/02 07:09:22;;;;;;;17.17;8.10;;;19.70;72.80;;;;;;5094390;28;20450;-67
2021/07/02 07:11:49;;;;;;;11.17;8.97;;;19.80;72.60;;;;;;5094420;28;20476;-67
2021/07/02 07:14:16;;;;;;;11.60;7.37;;;19.90;72.60;;;;;;5094341;28;20444;-67
2021/07/02 07:16:43;;;;;;;15.17;8.60;;;20.00;70.00;;;;;;5093819;28;20460;-67
2021/07/02 07:19:09;;;;;;;14.67;8.30;;;20.10;70.00;;;;;;5094320;28;20428;-67
2021/07/02 07:21:37;;;;;;;11.43;6.80;;;20.10;69.30;;;;;;5094235;28;20428;-67
2021/07/02 07:24:05;;;;;;;11.13;7.10;;;20.10;70.10;;;;;;5094205;28;20428;-67
2021/07/02 07:26:31;;;;;;;11.27;6.90;;;20.30;69.10;;;;;;5094056;28;20463;-67
2021/07/02 07:28:58;;;;;;;12.10;6.77;;;20.40;69.10;;;;;;5094093;28;20451;-67
2021/07/02 07:31:25;;;;;;;12.63;7.40;;;20.60;68.80;;;;;;5094070;28;20432;-67
2021/07/02 07:33:53;;;;;;;14.30;9.20;;;20.70;69.00;;;;;;5094056;28;20436;-67
2021/07/02 07:36:22;;;;;;;14.53;7.50;;;20.80;68.20;;;;;;5093997;28;20777;-67
2021/07/02 07:38:50;;;;;;;11.60;6.60;;;20.90;67.40;;;;;;5094716;28;20511;-67
2021/07/02 07:41:18;;;;;;;10.20;6.30;;;20.90;67.60;;;;;;5093735;28;20427;-67
2021/07/02 07:43:45;;;;;;;13.13;7.10;;;20.90;66.20;;;;;;5093991;28;20436;-67
2021/07/02 07:46:12;;;;;;;10.90;6.10;;;20.90;66.20;;;;;;5093763;28;20440;-67
2021/07/02 07:48:39;;;;;;;7.80;7.00;;;21.00;65.80;;;;;;5093852;28;20420;-67
2021/07/02 07:51:32;;;;;;;14.57;6.80;;;21.10;65.90;;;;;;5093793;28;20447;-67
2021/07/02 07:54:01;;;;;;;14.47;7.70;;;21.20;64.50;;;;;;5093813;28;20455;-68
2021/07/02 07:56:29;;;;;;;11.10;7.53;;;21.40;63.40;;;;;;5093640;28;20467;-68
2021/07/02 07:58:56;;;;;;;12.27;7.40;;;21.40;63.70;;;;;;5093601;28;20471;-67
2021/07/02 08:01:23;;;;;;;12.07;7.70;;;21.40;62.40;;;;;;5093369;28;20905;-67
2021/07/02 08:03:50;;;;;;;9.33;6.33;;;21.50;62.10;;;;;;5093855;28;20432;-67
2021/07/02 08:06:16;;;;;;;10.00;7.10;;;21.70;61.00;;;;;;5092504;28;20443;-68
2021/07/02 08:08:44;;;;;;;9.70;6.27;;;21.70;60.40;;;;;;5093618;28;20419;-68
2021/07/02 08:11:13;;;;;;;13.33;7.70;;;22.00;61.30;;;;;;5093566;28;20531;-67
2021/07/02 08:13:39;;;;;;;7.93;6.10;;;22.10;61.50;;;;;;5094133;28;20432;-67
2021/07/02 08:16:07;;;;;;;14.10;6.70;;;22.30;61.00;;;;;;5093515;28;20428;-67
2021/07/02 08:18:34;;;;;;;12.07;6.50;;;22.40;59.80;;;;;;5093386;28;20487;-67
2021/07/02 08:21:01;;;;;;;8.77;6.40;;;22.50;60.40;;;;;;5093522;28;20438;-67
2021/07/02 08:23:27;;;;;;;10.80;7.33;;;22.70;59.20;;;;;;5093125;28;20937;-67
2021/07/02 08:25:54;;;;;;;7.97;5.87;;;22.90;59.10;;;;;;5093678;28;20439;-67
2021/07/02 08:31:07;;;;;;;9.77;7.00;;;23.00;55.00;;;;;;5093736;28;20416;-67
2021/07/02 08:33:33;;;;;;;9.57;6.40;;;23.00;56.50;;;;;;5093361;28;20451;-68
2021/07/02 08:36:00;;;;;;;7.67;6.40;;;23.00;57.50;;;;;;5093374;28;20448;-67
2021/07/02 08:38:27;;;;;;;13.10;6.30;;;22.90;55.80;;;;;;5093108;28;20476;-67
2021/07/02 08:40:56;;;;;;;9.73;6.37;;;23.00;56.20;;;;;;5092947;28;20543;-67
2021/07/02 08:43:24;;;;;;;8.70;7.03;;;23.00;55.50;;;;;;5092922;28;20447;-67
2021/07/02 08:45:54;;;;;;;9.73;6.20;;;22.90;55.30;;;;;;5093275;28;20458;-67
2021/07/02 08:48:22;;;;;;;11.60;7.30;;;22.90;54.70;;;;;;5093220;28;20495;-67
2021/07/02 08:50:52;;;;;;;12.70;6.17;;;22.90;56.30;;;;;;5092948;28;20922;-67
2021/07/02 08:53:19;;;;;;;8.30;6.40;;;23.00;56.40;;;;;;5092845;28;20450;-67
2021/07/02 08:55:46;;;;;;;12.33;6.63;;;23.00;56.60;;;;;;5093455;28;20444;-67
2021/07/02 08:58:14;;;;;;;9.63;7.17;;;23.00;55.60;;;;;;5092653;28;20996;-67
2021/07/02 09:00:43;;;;;;;11.43;7.30;;;23.00;55.90;;;;;;5092890;28;21021;-67
2021/07/02 09:03:25;;;;;;;10.93;7.17;;;23.00;56.60;;;;;;5092765;28;20816;-68
2021/07/02 09:05:52;;;;;;;11.87;7.67;;;23.00;57.40;;;;;;5093489;28;20466;-67
2021/07/02 09:08:19;;;;;;;9.90;7.13;;;23.00;57.30;;;;;;5092614;28;20473;-67
2021/07/02 09:10:47;;;;;;;8.33;6.17;;;22.90;56.40;;;;;;5093042;28;20428;-67
2021/07/02 09:13:16;;;;;;;12.70;6.77;;;22.80;56.50;;;;;;5092960;28;20463;-67
2021/07/02 09:15:46;;;;;;;9.90;6.77;;;22.70;57.30;;;;;;5092599;28;21039;-67
2021/07/02 09:18:13;;;;;;;8.83;6.70;;;22.70;56.90;;;;;;5094900;28;20483;-67
2021/07/02 09:20:43;;;;;;;7.33;6.43;;;23.00;57.70;;;;;;5096600;28;20439;-67
2021/07/02 09:23:12;;;;;;;6.50;5.80;;;23.50;56.80;;;;;;5096552;28;20432;-67
2021/07/02 09:25:40;;;;;;;7.17;6.00;;;23.80;55.80;;;;;;5096459;28;20448;-67
2021/07/02 09:28:09;;;;;;;6.93;6.23;;;23.90;53.90;;;;;;5096352;28;20463;-67
2021/07/02 09:30:38;;;;;;;7.03;6.40;;;24.10;55.50;;;;;;5096093;28;20432;-67
2021/07/02 09:33:07;;;;;;;9.10;6.40;;;24.40;54.10;;;;;;5096083;28;20426;-68
2021/07/02 09:35:39;;;;;;;7.73;6.70;;;24.70;52.90;;;;;;5096312;28;20887;-68
2021/07/02 09:38:06;;;;;;;8.27;6.70;;;24.80;54.10;;;;;;5096133;28;20928;-67
2021/07/02 09:40:35;;;;;;;6.00;5.40;;;24.80;53.20;;;;;;5096193;28;20493;-67
2021/07/02 09:43:05;;;;;;;7.17;6.07;;;25.00;52.30;;;;;;5096158;28;20489;-67
2021/07/02 09:45:33;;;;;;;7.07;6.17;;;25.40;50.00;;;;;;5096111;28;20428;-67
2021/07/02 09:48:08;;;;;;;7.33;6.23;;;25.40;50.40;;;;;;5095944;28;20460;-68
2021/07/02 09:50:36;;;;;;;8.77;7.97;;;25.50;52.70;;;;;;5095970;28;20442;-67
2021/07/02 09:53:06;;;;;;;10.23;7.50;;;25.50;49.40;;;;;;5095892;28;20443;-67
2021/07/02 09:55:34;;;;;;;10.40;7.27;;;25.50;50.40;;;;;;5095549;28;20938;-67
2021/07/02 09:58:08;;;;;;;9.17;6.50;;;25.50;51.60;;;;;;5095300;28;20984;-68
2021/07/02 10:00:39;;;;;;;12.43;9.63;;;25.70;51.10;;;;;;5095742;28;20435;-68
2021/07/02 10:03:07;;;;;;;8.40;7.40;;;25.70;50.70;;;;;;5095348;28;20432;-68
2021/07/02 10:05:51;;;;;;;11.47;9.87;;;25.70;50.00;;;;;;5095554;28;20816;-68
2021/07/02 10:08:19;;;;;;;12.67;9.10;;;25.50;49.10;;;;;;5095168;28;20566;-68
2021/07/02 10:10:46;;;;;;;11.33;9.23;;;25.30;51.50;;;;;;5095486;28;20447;-68
2021/07/02 10:13:13;;;;;;;9.67;8.63;;;25.20;51.10;;;;;;5095694;28;20436;-67
2021/07/02 10:15:42;;;;;;;12.90;10.87;;;25.50;52.90;;;;;;5095468;28;20451;-67
2021/07/02 10:18:13;;;;;;;11.47;9.67;;;25.90;49.60;;;;;;5095281;28;20479;-67
2021/07/02 10:20:42;;;;;;;13.27;10.17;;;26.20;49.60;;;;;;5095382;28;20424;-68
2021/07/02 10:23:11;;;;;;;12.30;10.33;;;26.30;50.10;;;;;;5095354;28;20439;-68
2021/07/02 10:25:40;;;;;;;14.63;10.73;;;26.10;48.80;;;;;;5095301;28;20462;-68
2021/07/02 10:28:07;;;;;;;13.90;10.60;;;25.80;49.50;;;;;;5095179;28;20949;-68
2021/07/02 10:30:34;;;;;;;17.93;11.37;;;25.40;50.00;;;;;;5093915;28;20456;-68
2021/07/02 10:33:02;;;;;;;16.43;12.00;;;25.00;51.00;;;;;;5094831;28;20937;-68
2021/07/02 10:35:30;;;;;;;15.87;10.50;;;24.80;51.50;;;;;;5094810;28;20920;-68
2021/07/02 10:37:59;;;;;;;13.60;12.20;;;25.10;52.60;;;;;;5094868;28;20996;-68
2021/07/02 10:40:34;;;;;;;17.87;10.70;;;25.80;50.10;;;;;;5094628;28;20937;-72
2021/07/02 10:43:14;;;;;;;17.00;12.23;;;26.40;50.40;;;;;;5094844;28;20451;-68
2021/07/02 10:46:14;;;;;;;15.10;11.50;;;27.00;49.10;;;;;;5094835;28;20466;-68
2021/07/02 10:48:59;;;;;;;11.17;10.07;;;27.20;48.00;;;;;;5094846;28;20424;-68
2021/07/02 10:51:50;;;;;;;11.67;10.47;;;27.10;46.10;;;;;;5094806;28;20428;-68
2021/07/02 10:54:35;;;;;;;12.33;10.70;;;27.00;46.70;;;;;;5094429;28;20439;-68
2021/07/02 10:57:17;;;;;;;10.50;8.43;;;27.10;46.60;;;;;;5095060;28;20468;-68
2021/07/02 11:00:10;;;;;;;13.60;11.30;;;27.40;47.90;;;;;;5094540;28;20892;-68
2021/07/02 11:02:38;;;;;;;12.73;10.47;;;28.10;44.50;;;;;;5094641;28;20436;-68
2021/07/02 11:05:20;;;;;;;11.50;10.40;;;28.10;43.30;;;;;;5094483;28;20906;-68
2021/07/02 11:07:50;;;;;;;16.20;10.83;;;27.90;45.20;;;;;;5093610;28;20471;-68
2021/07/02 11:10:18;;;;;;;11.87;9.30;;;27.90;45.00;;;;;;5094730;28;20519;-72
2021/07/02 11:13:05;;;;;;;11.53;8.73;;;28.40;43.50;;;;;;5094380;28;20444;-71
2021/07/02 11:15:32;;;;;;;9.90;8.90;;;29.30;43.50;;;;;;5094103;28;20424;-68
2021/07/02 11:18:14;;;;;;;9.57;8.57;;;29.60;42.90;;;;;;5094134;28;20460;-68
2021/07/02 11:20:41;;;;;;;10.67;9.57;;;29.50;41.70;;;;;;5094458;28;20444;-68
2021/07/02 11:23:23;;;;;;;13.40;10.33;;;29.10;41.60;;;;;;5094263;28;20432;-68
2021/07/02 11:25:54;;;;;;;11.90;9.57;;;28.50;42.50;;;;;;5094209;28;20446;-68
2021/07/02 11:28:36;;;;;;;10.97;9.97;;;27.90;43.70;;;;;;5094111;28;20467;-68
2021/07/02 11:31:04;;;;;;;10.43;8.70;;;27.50;44.20;;;;;;5093834;28;20430;-68
2021/07/02 11:33:31;;;;;;;9.37;8.37;;;27.50;45.50;;;;;;5094117;28;20424;-68
2021/07/02 11:36:19;;;;;;;10.20;8.70;;;27.40;46.30;;;;;;5094047;28;20436;-68
2021/07/02 11:38:55;;;;;;;11.90;9.20;;;27.40;46.50;;;;;;5093877;28;20484;-68
2021/07/02 11:41:33;;;;;;;10.43;8.70;;;27.30;46.30;;;;;;5093733;28;20442;-68
2021/07/02 11:44:03;;;;;;;11.57;10.30;;;26.90;45.80;;;;;;5093894;28;20432;-68
2021/07/02 11:46:31;;;;;;;12.33;10.70;;;26.40;46.80;;;;;;5093585;28;21058;-68
2021/07/02 11:48:59;;;;;;;10.83;9.73;;;26.10;48.10;;;;;;5093773;28;20501;-68
2021/07/02 11:51:29;;;;;;;12.17;9.47;;;25.70;49.20;;;;;;5093796;28;20532;-68
2021/07/02 11:53:58;;;;;;;14.03;10.40;;;25.50;50.70;;;;;;5093742;28;20436;-68
2021/07/02 11:56:27;;;;;;;13.37;10.10;;;25.50;49.00;;;;;;5093391;28;20806;-68
2021/07/02 11:58:57;;;;;;;14.40;9.53;;;25.40;50.80;;;;;;5093655;28;20866;-68
2021/07/02 12:01:26;;;;;;;11.33;9.77;;;25.30;50.10;;;;;;5093746;28;20432;-68
2021/07/02 12:03:55;;;;;;;13.90;10.93;;;25.20;51.80;;;;;;5093677;28;20428;-68
2021/07/02 12:06:25;;;;;;;12.33;10.23;;;25.50;51.00;;;;;;5093685;28;20454;-68
2021/07/02 12:08:54;;;;;;;10.20;9.20;;;25.60;50.00;;;;;;5093857;28;20420;-68
2021/07/02 12:11:31;;;;;;;11.77;9.60;;;25.70;50.60;;;;;;5093529;28;20477;-68
2021/07/02 12:13:58;;;;;;;10.30;9.23;;;25.60;49.80;;;;;;5093303;28;20428;-68
2021/07/02 12:16:30;;;;;;;12.40;9.90;;;25.60;51.40;;;;;;5093012;28;20452;-68
2021/07/02 12:18:57;;;;;;;13.57;9.90;;;25.40;50.40;;;;;;5093037;28;20471;-68
2021/07/02 12:21:28;;;;;;;11.27;10.17;;;25.30;51.80;;;;;;5093782;28;20435;-68
2021/07/02 12:23:57;;;;;;;13.80;10.33;;;25.10;52.30;;;;;;5093563;28;20475;-68
2021/07/02 12:26:27;;;;;;;12.00;9.90;;;25.00;51.80;;;;;;5094025;28;20459;-68
2021/07/02 12:28:58;;;;;;;12.70;9.47;;;25.10;53.30;;;;;;5093650;28;20443;-68
2021/07/02 12:31:26;;;;;;;12.07;9.50;;;25.10;53.40;;;;;;5093477;28;20440;-68
2021/07/02 12:33:53;;;;;;;13.63;10.07;;;25.10;52.20;;;;;;5093930;28;20467;-68
2021/07/02 12:36:19;;;;;;;10.37;9.30;;;25.10;52.50;;;;;;5093257;28;20447;-68
2021/07/02 12:39:13;;;;;;;14.33;10.60;;;25.20;52.30;;;;;;5093256;28;20503;-68
2021/07/02 12:41:43;;;;;;;9.83;8.93;;;25.50;52.50;;;;;;5045950;28;20458;-68
2021/07/02 12:44:15;;;;;;;12.80;9.40;;;26.10;52.50;;;;;;5093079;28;20443;-68